sensor_id;sensor_type;location;lat;lon;timestamp;temperature;humidity
63017;DHT22;50274;45.640;11.756;2023-04-15T00:01:24;10.30;70.20
63017;DHT22;50274;45.640;11.756;2023-04-15T00:03:51;10.30;70.50
63017;DHT22;50274;45.640;11.756;2023-04-15T00:06:18;10.30;70.60
63017;DHT22;50274;45.640;11.756;2023-04-15T00:08:47;10.30;70.50
63017;DHT22;50274;45.640;11.756;2023-04-15T00:11:13;10.30;70.50
63017;DHT22;50274;45.640;11.756;2023-04-15T00:13:40;10.30;70.60
63017;DHT22;50274;45.640;11.756;2023-04-15T00:16:06;10.30;70.60
63017;DHT22;50274;45.640;11.756;2023-04-15T00:18:36;10.30;70.50
63017;DHT22;50274;45.640;11.756;2023-04-15T00:21:02;10.30;70.50
63017;DHT22;50274;45.640;11.756;2023-04-15T00:23:29;10.30;70.50
63017;DHT22;50274;45.640;11.756;2023-04-15T00:25:55;10.20;70.50
63017;DHT22;50274;45.640;11.756;2023-04-15T00:28:21;10.20;70.60
63017;DHT22;50274;45.640;11.756;2023-04-15T00:30:47;10.30;70.60
63017;DHT22;50274;45.640;11.756;2023-04-15T00:33:13;10.20;70.60
63017;DHT22;50274;45.640;11.756;2023-04-15T00:35:41;10.30;70.70
63017;DHT22;50274;45.640;11.756;2023-04-15T00:38:07;10.30;70.60
63017;DHT22;50274;45.640;11.756;2023-04-15T00:40:33;10.30;70.60
63017;DHT22;50274;45.640;11.756;2023-04-15T00:43:00;10.20;70.50
63017;DHT22;50274;45.640;11.756;2023-04-15T00:45:25;10.20;70.50
63017;DHT22;50274;45.640;11.756;2023-04-15T00:47:55;10.20;70.50
63017;DHT22;50274;45.640;11.756;2023-04-15T00:50:21;10.20;70.50
63017;DHT22;50274;45.640;11.756;2023-04-15T00:52:47;10.10;70.60
63017;DHT22;50274;45.640;11.756;2023-04-15T00:55:13;10.10;70.90
63017;DHT22;50274;45.640;11.756;2023-04-15T00:57:39;10.10;70.80
63017;DHT22;50274;45.640;11.756;2023-04-15T01:00:06;10.10;70.90
63017;DHT22;50274;45.640;11.756;2023-04-15T01:02:36;10.00;70.80
63017;DHT22;50274;45.640;11.756;2023-04-15T01:05:03;10.00;70.90
63017;DHT22;50274;45.640;11.756;2023-04-15T01:07:30;10.00;70.90
63017;DHT22;50274;45.640;11.756;2023-04-15T01:09:56;9.90;71.10
63017;DHT22;50274;45.640;11.756;2023-04-15T01:12:24;9.90;71.00
63017;DHT22;50274;45.640;11.756;2023-04-15T01:14:51;9.80;71.10
63017;DHT22;50274;45.640;11.756;2023-04-15T01:17:17;9.80;71.30
63017;DHT22;50274;45.640;11.756;2023-04-15T01:19:43;9.70;71.50
63017;DHT22;50274;45.640;11.756;2023-04-15T01:22:09;9.70;72.00
63017;DHT22;50274;45.640;11.756;2023-04-15T01:24:36;9.70;71.70
63017;DHT22;50274;45.640;11.756;2023-04-15T01:27:02;9.60;71.80
63017;DHT22;50274;45.640;11.756;2023-04-15T01:29:31;9.60;71.90
63017;DHT22;50274;45.640;11.756;2023-04-15T01:31:57;9.60;72.00
63017;DHT22;50274;45.640;11.756;2023-04-15T01:34:23;9.60;72.10
63017;DHT22;50274;45.640;11.756;2023-04-15T01:36:49;9.50;72.20
63017;DHT22;50274;45.640;11.756;2023-04-15T01:39:14;9.50;72.40
63017;DHT22;50274;45.640;11.756;2023-04-15T01:41:40;9.40;72.50
63017;DHT22;50274;45.640;11.756;2023-04-15T01:44:07;9.40;72.60
63017;DHT22;50274;45.640;11.756;2023-04-15T01:46:33;9.30;72.90
63017;DHT22;50274;45.640;11.756;2023-04-15T01:48:59;9.30;72.80
63017;DHT22;50274;45.640;11.756;2023-04-15T01:51:25;9.30;72.80
63017;DHT22;50274;45.640;11.756;2023-04-15T01:53:51;9.30;73.10
63017;DHT22;50274;45.640;11.756;2023-04-15T01:56:17;9.20;73.10
63017;DHT22;50274;45.640;11.756;2023-04-15T01:58:43;9.30;73.50
63017;DHT22;50274;45.640;11.756;2023-04-15T02:01:09;9.20;73.20
63017;DHT22;50274;45.640;11.756;2023-04-15T02:03:36;9.30;73.40
63017;DHT22;50274;45.640;11.756;2023-04-15T02:06:02;9.20;73.30
63017;DHT22;50274;45.640;11.756;2023-04-15T02:08:29;9.20;73.40
63017;DHT22;50274;45.640;11.756;2023-04-15T02:10:55;9.20;73.40
63017;DHT22;50274;45.640;11.756;2023-04-15T02:13:21;9.20;73.40
63017;DHT22;50274;45.640;11.756;2023-04-15T02:15:47;9.20;73.70
63017;DHT22;50274;45.640;11.756;2023-04-15T02:18:14;9.10;73.60
63017;DHT22;50274;45.640;11.756;2023-04-15T02:20:40;9.10;73.60
63017;DHT22;50274;45.640;11.756;2023-04-15T02:23:08;9.10;73.50
63017;DHT22;50274;45.640;11.756;2023-04-15T02:25:35;9.10;73.50
63017;DHT22;50274;45.640;11.756;2023-04-15T02:28:01;9.20;73.50
63017;DHT22;50274;45.640;11.756;2023-04-15T02:30:27;9.30;73.40
63017;DHT22;50274;45.640;11.756;2023-04-15T02:32:53;9.30;73.30
63017;DHT22;50274;45.640;11.756;2023-04-15T02:35:20;9.30;73.30
63017;DHT22;50274;45.640;11.756;2023-04-15T02:37:46;9.30;73.40
63017;DHT22;50274;45.640;11.756;2023-04-15T02:40:12;9.30;73.30
63017;DHT22;50274;45.640;11.756;2023-04-15T02:42:38;9.30;73.30
63017;DHT22;50274;45.640;11.756;2023-04-15T02:45:05;9.30;73.20
63017;DHT22;50274;45.640;11.756;2023-04-15T02:47:33;9.30;73.10
63017;DHT22;50274;45.640;11.756;2023-04-15T02:49:59;9.30;73.20
63017;DHT22;50274;45.640;11.756;2023-04-15T02:52:26;9.30;73.10
63017;DHT22;50274;45.640;11.756;2023-04-15T02:54:52;9.30;73.10
63017;DHT22;50274;45.640;11.756;2023-04-15T02:57:22;9.30;73.10
63017;DHT22;50274;45.640;11.756;2023-04-15T02:59:48;9.30;73.00
63017;DHT22;50274;45.640;11.756;2023-04-15T03:02:13;9.40;73.00
63017;DHT22;50274;45.640;11.756;2023-04-15T03:04:39;9.30;72.80
63017;DHT22;50274;45.640;11.756;2023-04-15T03:07:05;9.40;72.80
63017;DHT22;50274;45.640;11.756;2023-04-15T03:09:31;9.30;72.80
63017;DHT22;50274;45.640;11.756;2023-04-15T03:11:57;9.30;72.80
63017;DHT22;50274;45.640;11.756;2023-04-15T03:14:23;9.30;72.80
63017;DHT22;50274;45.640;11.756;2023-04-15T03:16:49;9.30;72.80
63017;DHT22;50274;45.640;11.756;2023-04-15T03:19:16;9.30;72.70
63017;DHT22;50274;45.640;11.756;2023-04-15T03:21:42;9.30;72.70
63017;DHT22;50274;45.640;11.756;2023-04-15T03:24:07;9.30;72.80
63017;DHT22;50274;45.640;11.756;2023-04-15T03:26:33;9.30;72.70
63017;DHT22;50274;45.640;11.756;2023-04-15T03:28:59;9.30;72.70
63017;DHT22;50274;45.640;11.756;2023-04-15T03:31:25;9.30;72.70
63017;DHT22;50274;45.640;11.756;2023-04-15T03:33:52;9.30;72.70
63017;DHT22;50274;45.640;11.756;2023-04-15T03:36:18;9.30;72.70
63017;DHT22;50274;45.640;11.756;2023-04-15T03:38:43;9.30;72.70
63017;DHT22;50274;45.640;11.756;2023-04-15T03:41:09;9.20;72.60
63017;DHT22;50274;45.640;11.756;2023-04-15T03:43:35;9.30;72.70
63017;DHT22;50274;45.640;11.756;2023-04-15T03:46:01;9.30;72.60
63017;DHT22;50274;45.640;11.756;2023-04-15T03:48:27;9.30;72.60
63017;DHT22;50274;45.640;11.756;2023-04-15T03:50:53;9.20;72.60
63017;DHT22;50274;45.640;11.756;2023-04-15T03:53:20;9.30;72.60
63017;DHT22;50274;45.640;11.756;2023-04-15T03:55:46;9.20;72.60
63017;DHT22;50274;45.640;11.756;2023-04-15T03:58:12;9.20;72.60
63017;DHT22;50274;45.640;11.756;2023-04-15T04:00:39;9.20;72.60
63017;DHT22;50274;45.640;11.756;2023-04-15T04:03:05;9.20;72.50
63017;DHT22;50274;45.640;11.756;2023-04-15T04:05:31;9.20;72.50
63017;DHT22;50274;45.640;11.756;2023-04-15T04:07:57;9.20;72.50
63017;DHT22;50274;45.640;11.756;2023-04-15T04:10:23;9.20;72.50
63017;DHT22;50274;45.640;11.756;2023-04-15T04:12:49;9.20;72.50
63017;DHT22;50274;45.640;11.756;2023-04-15T04:15:14;9.20;72.50
63017;DHT22;50274;45.640;11.756;2023-04-15T04:17:40;9.20;72.50
63017;DHT22;50274;45.640;11.756;2023-04-15T04:20:07;9.10;72.40
63017;DHT22;50274;45.640;11.756;2023-04-15T04:22:37;9.10;72.40
63017;DHT22;50274;45.640;11.756;2023-04-15T04:25:04;9.10;72.50
63017;DHT22;50274;45.640;11.756;2023-04-15T04:27:30;9.10;72.60
63017;DHT22;50274;45.640;11.756;2023-04-15T04:29:56;9.10;72.60
63017;DHT22;50274;45.640;11.756;2023-04-15T04:32:22;9.10;72.60
63017;DHT22;50274;45.640;11.756;2023-04-15T04:34:47;9.10;72.60
63017;DHT22;50274;45.640;11.756;2023-04-15T04:37:13;9.10;72.70
63017;DHT22;50274;45.640;11.756;2023-04-15T04:39:39;9.10;72.60
63017;DHT22;50274;45.640;11.756;2023-04-15T04:42:05;9.10;72.60
63017;DHT22;50274;45.640;11.756;2023-04-15T04:44:31;9.10;72.60
63017;DHT22;50274;45.640;11.756;2023-04-15T04:46:57;9.10;72.60
63017;DHT22;50274;45.640;11.756;2023-04-15T04:49:22;9.10;72.60
63017;DHT22;50274;45.640;11.756;2023-04-15T04:51:48;9.10;72.60
63017;DHT22;50274;45.640;11.756;2023-04-15T04:54:14;9.20;72.60
63017;DHT22;50274;45.640;11.756;2023-04-15T04:56:40;9.20;72.60
63017;DHT22;50274;45.640;11.756;2023-04-15T04:59:06;9.20;72.50
63017;DHT22;50274;45.640;11.756;2023-04-15T05:01:32;9.20;72.60
63017;DHT22;50274;45.640;11.756;2023-04-15T05:03:59;9.20;72.50
63017;DHT22;50274;45.640;11.756;2023-04-15T05:06:24;9.10;72.60
63017;DHT22;50274;45.640;11.756;2023-04-15T05:08:50;9.20;72.50
63017;DHT22;50274;45.640;11.756;2023-04-15T05:11:16;9.20;72.50
63017;DHT22;50274;45.640;11.756;2023-04-15T05:13:42;9.20;72.50
63017;DHT22;50274;45.640;11.756;2023-04-15T05:16:08;9.20;72.50
63017;DHT22;50274;45.640;11.756;2023-04-15T05:18:34;9.20;72.50
63017;DHT22;50274;45.640;11.756;2023-04-15T05:21:00;9.20;72.50
63017;DHT22;50274;45.640;11.756;2023-04-15T05:23:27;9.30;72.40
63017;DHT22;50274;45.640;11.756;2023-04-15T05:25:53;9.30;72.40
63017;DHT22;50274;45.640;11.756;2023-04-15T05:28:19;9.40;72.30
63017;DHT22;50274;45.640;11.756;2023-04-15T05:30:45;9.40;72.20
63017;DHT22;50274;45.640;11.756;2023-04-15T05:33:10;9.50;72.10
63017;DHT22;50274;45.640;11.756;2023-04-15T05:35:36;9.50;72.20
63017;DHT22;50274;45.640;11.756;2023-04-15T05:38:02;9.50;72.00
63017;DHT22;50274;45.640;11.756;2023-04-15T05:40:29;9.60;71.90
63017;DHT22;50274;45.640;11.756;2023-04-15T05:42:55;9.60;72.00
63017;DHT22;50274;45.640;11.756;2023-04-15T05:45:21;9.70;71.90
63017;DHT22;50274;45.640;11.756;2023-04-15T05:47:47;9.60;71.90
63017;DHT22;50274;45.640;11.756;2023-04-15T05:50:15;9.70;71.90
63017;DHT22;50274;45.640;11.756;2023-04-15T05:52:41;9.70;72.10
63017;DHT22;50274;45.640;11.756;2023-04-15T05:55:07;9.80;72.10
63017;DHT22;50274;45.640;11.756;2023-04-15T05:57:33;9.80;72.10
63017;DHT22;50274;45.640;11.756;2023-04-15T05:59:59;9.80;72.80
63017;DHT22;50274;45.640;11.756;2023-04-15T06:02:25;9.90;72.40
63017;DHT22;50274;45.640;11.756;2023-04-15T06:04:51;9.90;73.10
63017;DHT22;50274;45.640;11.756;2023-04-15T06:07:16;9.90;72.90
63017;DHT22;50274;45.640;11.756;2023-04-15T06:09:42;10.00;72.90
63017;DHT22;50274;45.640;11.756;2023-04-15T06:12:09;10.00;73.00
63017;DHT22;50274;45.640;11.756;2023-04-15T06:14:37;10.10;73.20
63017;DHT22;50274;45.640;11.756;2023-04-15T06:17:03;10.10;73.40
63017;DHT22;50274;45.640;11.756;2023-04-15T06:19:29;10.20;73.40
63017;DHT22;50274;45.640;11.756;2023-04-15T06:21:57;10.20;73.60
63017;DHT22;50274;45.640;11.756;2023-04-15T06:24:23;10.20;73.70
63017;DHT22;50274;45.640;11.756;2023-04-15T06:26:48;10.30;73.80
63017;DHT22;50274;45.640;11.756;2023-04-15T06:29:15;10.30;73.80
63017;DHT22;50274;45.640;11.756;2023-04-15T06:31:41;10.30;73.70
63017;DHT22;50274;45.640;11.756;2023-04-15T06:34:07;10.40;73.70
63017;DHT22;50274;45.640;11.756;2023-04-15T06:36:33;10.40;74.20
63017;DHT22;50274;45.640;11.756;2023-04-15T06:38:58;10.40;73.90
63017;DHT22;50274;45.640;11.756;2023-04-15T06:41:24;10.50;74.20
63017;DHT22;50274;45.640;11.756;2023-04-15T06:43:50;10.50;74.00
63017;DHT22;50274;45.640;11.756;2023-04-15T06:46:16;10.60;73.90
63017;DHT22;50274;45.640;11.756;2023-04-15T06:48:42;10.70;74.10
63017;DHT22;50274;45.640;11.756;2023-04-15T06:51:08;10.70;74.20
63017;DHT22;50274;45.640;11.756;2023-04-15T06:53:34;10.80;74.00
63017;DHT22;50274;45.640;11.756;2023-04-15T06:56:06;10.80;74.20
63017;DHT22;50274;45.640;11.756;2023-04-15T06:58:32;10.90;74.20
63017;DHT22;50274;45.640;11.756;2023-04-15T07:00:58;10.90;74.10
63017;DHT22;50274;45.640;11.756;2023-04-15T07:03:24;11.00;74.40
63017;DHT22;50274;45.640;11.756;2023-04-15T07:05:50;11.10;74.30
63017;DHT22;50274;45.640;11.756;2023-04-15T07:08:15;11.30;74.80
63017;DHT22;50274;45.640;11.756;2023-04-15T07:10:41;11.40;75.10
63017;DHT22;50274;45.640;11.756;2023-04-15T07:13:07;11.50;75.00
63017;DHT22;50274;45.640;11.756;2023-04-15T07:15:33;11.60;74.50
63017;DHT22;50274;45.640;11.756;2023-04-15T07:17:59;11.80;74.50
63017;DHT22;50274;45.640;11.756;2023-04-15T07:20:25;11.90;74.00
63017;DHT22;50274;45.640;11.756;2023-04-15T07:22:51;11.90;73.70
63017;DHT22;50274;45.640;11.756;2023-04-15T07:25:17;11.90;73.60
63017;DHT22;50274;45.640;11.756;2023-04-15T07:27:44;12.00;73.20
63017;DHT22;50274;45.640;11.756;2023-04-15T07:30:10;12.10;73.10
63017;DHT22;50274;45.640;11.756;2023-04-15T07:32:37;12.10;72.80
63017;DHT22;50274;45.640;11.756;2023-04-15T07:35:03;12.20;72.80
63017;DHT22;50274;45.640;11.756;2023-04-15T07:37:29;12.20;72.80
63017;DHT22;50274;45.640;11.756;2023-04-15T07:39:55;12.30;72.80
63017;DHT22;50274;45.640;11.756;2023-04-15T07:42:21;12.40;72.40
63017;DHT22;50274;45.640;11.756;2023-04-15T07:44:47;12.50;71.40
63017;DHT22;50274;45.640;11.756;2023-04-15T07:47:12;12.60;71.10
63017;DHT22;50274;45.640;11.756;2023-04-15T07:49:38;12.60;70.70
63017;DHT22;50274;45.640;11.756;2023-04-15T07:52:04;12.70;70.80
63017;DHT22;50274;45.640;11.756;2023-04-15T07:54:30;12.80;70.80
63017;DHT22;50274;45.640;11.756;2023-04-15T07:56:56;12.80;70.80
63017;DHT22;50274;45.640;11.756;2023-04-15T07:59:23;13.00;70.50
63017;DHT22;50274;45.640;11.756;2023-04-15T08:01:49;13.10;69.80
63017;DHT22;50274;45.640;11.756;2023-04-15T08:04:15;13.10;69.20
63017;DHT22;50274;45.640;11.756;2023-04-15T08:06:41;13.10;69.00
63017;DHT22;50274;45.640;11.756;2023-04-15T08:09:11;13.10;69.10
63017;DHT22;50274;45.640;11.756;2023-04-15T08:11:39;13.20;69.00
63017;DHT22;50274;45.640;11.756;2023-04-15T08:14:06;13.20;68.90
63017;DHT22;50274;45.640;11.756;2023-04-15T08:16:32;13.30;68.80
63017;DHT22;50274;45.640;11.756;2023-04-15T08:18:58;13.30;68.70
63017;DHT22;50274;45.640;11.756;2023-04-15T08:21:24;13.40;69.00
63017;DHT22;50274;45.640;11.756;2023-04-15T08:23:52;13.50;68.80
63017;DHT22;50274;45.640;11.756;2023-04-15T08:26:23;13.60;68.60
63017;DHT22;50274;45.640;11.756;2023-04-15T08:28:52;13.70;68.40
63017;DHT22;50274;45.640;11.756;2023-04-15T08:31:21;13.80;68.60
63017;DHT22;50274;45.640;11.756;2023-04-15T08:33:50;13.90;68.40
63017;DHT22;50274;45.640;11.756;2023-04-15T08:36:17;13.90;68.20
63017;DHT22;50274;45.640;11.756;2023-04-15T08:38:43;14.00;68.20
63017;DHT22;50274;45.640;11.756;2023-04-15T08:41:24;14.00;68.20
63017;DHT22;50274;45.640;11.756;2023-04-15T08:43:59;14.10;68.00
63017;DHT22;50274;45.640;11.756;2023-04-15T08:46:26;14.30;68.10
63017;DHT22;50274;45.640;11.756;2023-04-15T08:48:56;14.50;67.70
63017;DHT22;50274;45.640;11.756;2023-04-15T08:51:22;14.80;67.40
63017;DHT22;50274;45.640;11.756;2023-04-15T08:53:49;15.00;66.70
63017;DHT22;50274;45.640;11.756;2023-04-15T08:56:15;15.00;66.10
63017;DHT22;50274;45.640;11.756;2023-04-15T08:58:45;15.10;65.80
63017;DHT22;50274;45.640;11.756;2023-04-15T09:01:12;15.10;65.20
63017;DHT22;50274;45.640;11.756;2023-04-15T09:03:41;15.10;65.00
63017;DHT22;50274;45.640;11.756;2023-04-15T09:06:09;15.10;64.90
63017;DHT22;50274;45.640;11.756;2023-04-15T09:08:38;15.10;64.70
63017;DHT22;50274;45.640;11.756;2023-04-15T09:11:06;15.10;65.10
63017;DHT22;50274;45.640;11.756;2023-04-15T09:13:35;15.20;65.60
63017;DHT22;50274;45.640;11.756;2023-04-15T09:16:02;15.20;65.20
63017;DHT22;50274;45.640;11.756;2023-04-15T09:18:33;15.20;64.80
63017;DHT22;50274;45.640;11.756;2023-04-15T09:21:10;15.10;64.80
63017;DHT22;50274;45.640;11.756;2023-04-15T09:23:37;15.10;65.50
63017;DHT22;50274;45.640;11.756;2023-04-15T09:26:04;15.10;65.50
63017;DHT22;50274;45.640;11.756;2023-04-15T09:28:31;15.10;64.90
63017;DHT22;50274;45.640;11.756;2023-04-15T09:31:01;15.20;64.60
63017;DHT22;50274;45.640;11.756;2023-04-15T09:33:30;15.20;64.10
63017;DHT22;50274;45.640;11.756;2023-04-15T09:36:00;15.40;64.20
63017;DHT22;50274;45.640;11.756;2023-04-15T09:38:26;15.50;64.00
63017;DHT22;50274;45.640;11.756;2023-04-15T09:40:55;15.60;63.80
63017;DHT22;50274;45.640;11.756;2023-04-15T09:43:21;15.70;63.50
63017;DHT22;50274;45.640;11.756;2023-04-15T09:45:49;15.70;62.70
63017;DHT22;50274;45.640;11.756;2023-04-15T09:48:24;15.80;62.30
63017;DHT22;50274;45.640;11.756;2023-04-15T09:50:57;15.90;62.40
63017;DHT22;50274;45.640;11.756;2023-04-15T09:53:24;16.00;62.00
63017;DHT22;50274;45.640;11.756;2023-04-15T09:55:55;16.10;61.60
63017;DHT22;50274;45.640;11.756;2023-04-15T09:58:27;16.30;61.90
63017;DHT22;50274;45.640;11.756;2023-04-15T10:00:55;16.40;61.30
63017;DHT22;50274;45.640;11.756;2023-04-15T10:03:23;16.50;61.50
63017;DHT22;50274;45.640;11.756;2023-04-15T10:05:57;16.60;60.80
63017;DHT22;50274;45.640;11.756;2023-04-15T10:08:26;16.70;60.10
63017;DHT22;50274;45.640;11.756;2023-04-15T10:10:52;16.80;59.20
63017;DHT22;50274;45.640;11.756;2023-04-15T10:13:20;16.80;59.00
63017;DHT22;50274;45.640;11.756;2023-04-15T10:18:25;17.00;57.40
63017;DHT22;50274;45.640;11.756;2023-04-15T10:20:53;17.00;56.30
63017;DHT22;50274;45.640;11.756;2023-04-15T10:23:23;17.10;56.60
63017;DHT22;50274;45.640;11.756;2023-04-15T10:25:51;17.10;57.00
63017;DHT22;50274;45.640;11.756;2023-04-15T10:28:21;17.20;57.50
63017;DHT22;50274;45.640;11.756;2023-04-15T10:30:50;17.30;56.90
63017;DHT22;50274;45.640;11.756;2023-04-15T10:33:21;17.30;56.50
63017;DHT22;50274;45.640;11.756;2023-04-15T10:35:49;17.30;56.70
63017;DHT22;50274;45.640;11.756;2023-04-15T10:38:33;17.30;57.00
63017;DHT22;50274;45.640;11.756;2023-04-15T10:44:00;17.60;56.70
63017;DHT22;50274;45.640;11.756;2023-04-15T10:46:37;17.80;56.20
63017;DHT22;50274;45.640;11.756;2023-04-15T10:49:13;18.00;55.20
63017;DHT22;50274;45.640;11.756;2023-04-15T10:51:43;18.00;54.20
63017;DHT22;50274;45.640;11.756;2023-04-15T10:54:29;17.80;54.20
63017;DHT22;50274;45.640;11.756;2023-04-15T10:59:31;17.90;54.80
63017;DHT22;50274;45.640;11.756;2023-04-15T11:02:04;17.90;54.60
63017;DHT22;50274;45.640;11.756;2023-04-15T11:04:52;18.00;54.70
63017;DHT22;50274;45.640;11.756;2023-04-15T11:07:35;18.00;54.40
63017;DHT22;50274;45.640;11.756;2023-04-15T11:10:02;18.00;54.10
63017;DHT22;50274;45.640;11.756;2023-04-15T11:12:35;18.00;53.40
63017;DHT22;50274;45.640;11.756;2023-04-15T11:15:27;17.90;53.60
63017;DHT22;50274;45.640;11.756;2023-04-15T11:17:57;17.90;53.60
63017;DHT22;50274;45.640;11.756;2023-04-15T11:20:27;17.80;54.00
63017;DHT22;50274;45.640;11.756;2023-04-15T11:22:59;18.00;54.20
63017;DHT22;50274;45.640;11.756;2023-04-15T11:25:26;18.10;54.10
63017;DHT22;50274;45.640;11.756;2023-04-15T11:27:53;18.30;53.10
63017;DHT22;50274;45.640;11.756;2023-04-15T11:30:24;18.60;52.80
63017;DHT22;50274;45.640;11.756;2023-04-15T11:32:52;18.80;52.00
63017;DHT22;50274;45.640;11.756;2023-04-15T11:35:18;18.80;51.90
63017;DHT22;50274;45.640;11.756;2023-04-15T11:37:45;18.80;51.30
63017;DHT22;50274;45.640;11.756;2023-04-15T11:40:11;18.70;50.60
63017;DHT22;50274;45.640;11.756;2023-04-15T11:42:37;18.70;49.00
63017;DHT22;50274;45.640;11.756;2023-04-15T11:45:21;18.80;48.70
63017;DHT22;50274;45.640;11.756;2023-04-15T11:47:47;19.10;50.00
63017;DHT22;50274;45.640;11.756;2023-04-15T11:50:17;19.40;49.30
63017;DHT22;50274;45.640;11.756;2023-04-15T11:53:01;19.50;49.10
63017;DHT22;50274;45.640;11.756;2023-04-15T11:55:27;19.10;48.30
63017;DHT22;50274;45.640;11.756;2023-04-15T12:00:51;18.80;47.80
63017;DHT22;50274;45.640;11.756;2023-04-15T12:03:28;18.70;48.50
63017;DHT22;50274;45.640;11.756;2023-04-15T12:09:16;18.50;49.20
63017;DHT22;50274;45.640;11.756;2023-04-15T12:11:47;18.80;49.30
63017;DHT22;50274;45.640;11.756;2023-04-15T12:14:29;19.10;49.10
63017;DHT22;50274;45.640;11.756;2023-04-15T12:19:38;19.40;46.40
63017;DHT22;50274;45.640;11.756;2023-04-15T12:22:08;19.50;46.50
63017;DHT22;50274;45.640;11.756;2023-04-15T12:24:36;19.60;46.70
63017;DHT22;50274;45.640;11.756;2023-04-15T12:27:10;19.70;47.00
63017;DHT22;50274;45.640;11.756;2023-04-15T12:29:37;19.60;47.00
63017;DHT22;50274;45.640;11.756;2023-04-15T12:32:10;19.70;47.40
63017;DHT22;50274;45.640;11.756;2023-04-15T12:34:49;19.60;46.60
63017;DHT22;50274;45.640;11.756;2023-04-15T12:37:15;19.70;46.50
63017;DHT22;50274;45.640;11.756;2023-04-15T12:39:43;19.70;46.20
63017;DHT22;50274;45.640;11.756;2023-04-15T12:42:09;19.70;45.80
63017;DHT22;50274;45.640;11.756;2023-04-15T12:44:36;19.70;45.70
63017;DHT22;50274;45.640;11.756;2023-04-15T12:47:03;19.60;46.30
63017;DHT22;50274;45.640;11.756;2023-04-15T12:49:30;19.40;46.00
63017;DHT22;50274;45.640;11.756;2023-04-15T12:51:57;19.30;46.40
63017;DHT22;50274;45.640;11.756;2023-04-15T12:54:24;19.10;46.80
63017;DHT22;50274;45.640;11.756;2023-04-15T12:56:51;19.10;47.50
63017;DHT22;50274;45.640;11.756;2023-04-15T12:59:17;18.90;46.70
63017;DHT22;50274;45.640;11.756;2023-04-15T13:01:44;18.80;46.60
63017;DHT22;50274;45.640;11.756;2023-04-15T13:04:32;18.70;46.50
63017;DHT22;50274;45.640;11.756;2023-04-15T13:06:58;18.50;46.90
63017;DHT22;50274;45.640;11.756;2023-04-15T13:09:23;18.40;47.00
63017;DHT22;50274;45.640;11.756;2023-04-15T13:11:49;18.50;46.90
63017;DHT22;50274;45.640;11.756;2023-04-15T13:14:15;18.40;46.90
63017;DHT22;50274;45.640;11.756;2023-04-15T13:16:41;18.30;47.30
63017;DHT22;50274;45.640;11.756;2023-04-15T13:19:07;18.30;47.70
63017;DHT22;50274;45.640;11.756;2023-04-15T13:21:33;18.20;48.40
63017;DHT22;50274;45.640;11.756;2023-04-15T13:23:59;18.20;48.20
63017;DHT22;50274;45.640;11.756;2023-04-15T13:26:26;18.20;46.90
63017;DHT22;50274;45.640;11.756;2023-04-15T13:28:52;18.20;47.10
63017;DHT22;50274;45.640;11.756;2023-04-15T13:31:18;18.20;47.40
63017;DHT22;50274;45.640;11.756;2023-04-15T13:33:44;18.20;47.70
63017;DHT22;50274;45.640;11.756;2023-04-15T13:36:10;18.20;47.50
63017;DHT22;50274;45.640;11.756;2023-04-15T13:38:35;18.20;46.50
63017;DHT22;50274;45.640;11.756;2023-04-15T13:41:01;18.10;46.10
63017;DHT22;50274;45.640;11.756;2023-04-15T13:43:27;18.10;45.00
63017;DHT22;50274;45.640;11.756;2023-04-15T13:45:53;18.30;45.00
63017;DHT22;50274;45.640;11.756;2023-04-15T13:48:19;18.40;45.10
63017;DHT22;50274;45.640;11.756;2023-04-15T13:50:45;18.50;45.60
63017;DHT22;50274;45.640;11.756;2023-04-15T13:53:11;18.60;45.50
63017;DHT22;50274;45.640;11.756;2023-04-15T13:55:37;18.70;45.50
63017;DHT22;50274;45.640;11.756;2023-04-15T13:58:09;18.70;45.90
63017;DHT22;50274;45.640;11.756;2023-04-15T14:00:35;18.60;46.30
63017;DHT22;50274;45.640;11.756;2023-04-15T14:03:01;18.40;46.20
63017;DHT22;50274;45.640;11.756;2023-04-15T14:05:27;18.30;45.80
63017;DHT22;50274;45.640;11.756;2023-04-15T14:07:53;18.10;46.20
63017;DHT22;50274;45.640;11.756;2023-04-15T14:10:19;18.00;46.90
63017;DHT22;50274;45.640;11.756;2023-04-15T14:12:45;17.90;47.20
63017;DHT22;50274;45.640;11.756;2023-04-15T14:15:11;17.80;47.60
63017;DHT22;50274;45.640;11.756;2023-04-15T14:17:37;17.60;47.90
63017;DHT22;50274;45.640;11.756;2023-04-15T14:20:05;17.60;47.90
63017;DHT22;50274;45.640;11.756;2023-04-15T14:22:31;17.50;48.00
63017;DHT22;50274;45.640;11.756;2023-04-15T14:24:57;17.50;48.20
63017;DHT22;50274;45.640;11.756;2023-04-15T14:27:23;17.40;48.10
63017;DHT22;50274;45.640;11.756;2023-04-15T14:29:49;17.60;48.40
63017;DHT22;50274;45.640;11.756;2023-04-15T14:32:15;17.70;48.40
63017;DHT22;50274;45.640;11.756;2023-04-15T14:34:41;17.80;48.10
63017;DHT22;50274;45.640;11.756;2023-04-15T14:37:07;18.00;44.70
63017;DHT22;50274;45.640;11.756;2023-04-15T14:39:35;18.30;44.30
63017;DHT22;50274;45.640;11.756;2023-04-15T14:42:03;18.40;43.70
63017;DHT22;50274;45.640;11.756;2023-04-15T14:44:30;18.50;43.70
63017;DHT22;50274;45.640;11.756;2023-04-15T14:46:55;18.50;43.60
63017;DHT22;50274;45.640;11.756;2023-04-15T14:49:24;18.50;44.20
63017;DHT22;50274;45.640;11.756;2023-04-15T14:51:50;18.50;43.80
63017;DHT22;50274;45.640;11.756;2023-04-15T14:54:18;18.50;43.80
63017;DHT22;50274;45.640;11.756;2023-04-15T14:56:47;18.50;44.00
63017;DHT22;50274;45.640;11.756;2023-04-15T14:59:13;18.50;43.80
63017;DHT22;50274;45.640;11.756;2023-04-15T15:01:41;18.60;44.00
63017;DHT22;50274;45.640;11.756;2023-04-15T15:04:09;18.70;44.80
63017;DHT22;50274;45.640;11.756;2023-04-15T15:06:35;18.80;45.40
63017;DHT22;50274;45.640;11.756;2023-04-15T15:09:03;18.90;45.70
63017;DHT22;50274;45.640;11.756;2023-04-15T15:11:29;18.90;45.50
63017;DHT22;50274;45.640;11.756;2023-04-15T15:13:56;18.80;46.80
63017;DHT22;50274;45.640;11.756;2023-04-15T15:16:23;18.50;47.80
63017;DHT22;50274;45.640;11.756;2023-04-15T15:18:49;18.20;48.10
63017;DHT22;50274;45.640;11.756;2023-04-15T15:21:16;17.90;48.00
63017;DHT22;50274;45.640;11.756;2023-04-15T15:23:42;17.60;49.10
63017;DHT22;50274;45.640;11.756;2023-04-15T15:26:07;17.40;49.70
63017;DHT22;50274;45.640;11.756;2023-04-15T15:28:33;17.20;50.40
63017;DHT22;50274;45.640;11.756;2023-04-15T15:30:59;17.00;50.70
63017;DHT22;50274;45.640;11.756;2023-04-15T15:33:25;16.80;50.40
63017;DHT22;50274;45.640;11.756;2023-04-15T15:35:51;16.60;50.20
63017;DHT22;50274;45.640;11.756;2023-04-15T15:38:19;16.50;50.30